sensor_id;sensor_type;location;lat;lon;timestamp;temperature;humidity
8676;DHT22;4375;52.486;13.424;2023-02-28T00:00:18;3.30;99.90
8676;DHT22;4375;52.486;13.424;2023-02-28T00:02:45;3.30;99.90
8676;DHT22;4375;52.486;13.424;2023-02-28T00:05:13;3.30;99.90
8676;DHT22;4375;52.486;13.424;2023-02-28T00:07:39;3.30;99.90
8676;DHT22;4375;52.486;13.424;2023-02-28T00:10:07;3.30;99.90
8676;DHT22;4375;52.486;13.424;2023-02-28T00:12:34;3.30;99.90
8676;DHT22;4375;52.486;13.424;2023-02-28T00:15:01;3.30;99.90
8676;DHT22;4375;52.486;13.424;2023-02-28T00:17:26;3.30;99.90
8676;DHT22;4375;52.486;13.424;2023-02-28T00:19:52;3.10;99.90
8676;DHT22;4375;52.486;13.424;2023-02-28T00:22:19;3.20;99.90
8676;DHT22;4375;52.486;13.424;2023-02-28T00:24:45;3.10;99.90
8676;DHT22;4375;52.486;13.424;2023-02-28T00:27:11;3.10;99.90
8676;DHT22;4375;52.486;13.424;2023-02-28T00:29:37;3.00;99.90
8676;DHT22;4375;52.486;13.424;2023-02-28T00:32:04;3.00;99.90
8676;DHT22;4375;52.486;13.424;2023-02-28T00:34:30;3.00;99.90
8676;DHT22;4375;52.486;13.424;2023-02-28T00:36:55;3.00;99.90
8676;DHT22;4375;52.486;13.424;2023-02-28T00:39:21;3.00;99.90
8676;DHT22;4375;52.486;13.424;2023-02-28T00:41:47;2.90;99.90
8676;DHT22;4375;52.486;13.424;2023-02-28T00:44:13;3.00;99.90
8676;DHT22;4375;52.486;13.424;2023-02-28T00:46:38;3.10;99.90
8676;DHT22;4375;52.486;13.424;2023-02-28T00:49:04;3.00;99.90
8676;DHT22;4375;52.486;13.424;2023-02-28T00:51:29;3.00;99.90
8676;DHT22;4375;52.486;13.424;2023-02-28T00:53:55;3.00;99.90
8676;DHT22;4375;52.486;13.424;2023-02-28T00:56:21;3.00;99.90
8676;DHT22;4375;52.486;13.424;2023-02-28T00:58:46;3.10;99.90
8676;DHT22;4375;52.486;13.424;2023-02-28T01:01:12;2.90;99.90
8676;DHT22;4375;52.486;13.424;2023-02-28T01:03:38;2.90;99.90
8676;DHT22;4375;52.486;13.424;2023-02-28T01:06:04;2.80;99.90
8676;DHT22;4375;52.486;13.424;2023-02-28T01:08:30;2.90;99.90
8676;DHT22;4375;52.486;13.424;2023-02-28T01:10:56;2.90;99.90
8676;DHT22;4375;52.486;13.424;2023-02-28T01:13:22;2.80;99.90
8676;DHT22;4375;52.486;13.424;2023-02-28T01:15:53;2.80;99.90
8676;DHT22;4375;52.486;13.424;2023-02-28T01:18:20;2.80;99.90
8676;DHT22;4375;52.486;13.424;2023-02-28T01:20:46;2.80;99.90
8676;DHT22;4375;52.486;13.424;2023-02-28T01:23:12;2.80;99.90
8676;DHT22;4375;52.486;13.424;2023-02-28T01:25:38;2.80;99.90
8676;DHT22;4375;52.486;13.424;2023-02-28T01:28:04;2.90;99.90
8676;DHT22;4375;52.486;13.424;2023-02-28T01:30:31;2.90;99.90
8676;DHT22;4375;52.486;13.424;2023-02-28T01:32:56;2.80;99.90
8676;DHT22;4375;52.486;13.424;2023-02-28T01:35:22;2.70;99.90
8676;DHT22;4375;52.486;13.424;2023-02-28T01:37:47;2.80;99.90
8676;DHT22;4375;52.486;13.424;2023-02-28T01:40:14;2.70;99.90
8676;DHT22;4375;52.486;13.424;2023-02-28T01:42:40;2.60;99.90
8676;DHT22;4375;52.486;13.424;2023-02-28T01:47:42;2.50;99.90
8676;DHT22;4375;52.486;13.424;2023-02-28T01:50:13;2.50;99.90
8676;DHT22;4375;52.486;13.424;2023-02-28T01:52:40;2.40;99.90
8676;DHT22;4375;52.486;13.424;2023-02-28T01:55:08;2.40;99.90
8676;DHT22;4375;52.486;13.424;2023-02-28T01:57:39;2.30;99.90
8676;DHT22;4375;52.486;13.424;2023-02-28T02:00:11;2.30;99.90
8676;DHT22;4375;52.486;13.424;2023-02-28T02:02:42;2.30;99.90
8676;DHT22;4375;52.486;13.424;2023-02-28T02:05:12;2.30;99.90
8676;DHT22;4375;52.486;13.424;2023-02-28T02:07:41;2.20;99.90
8676;DHT22;4375;52.486;13.424;2023-02-28T02:10:19;2.20;99.90
8676;DHT22;4375;52.486;13.424;2023-02-28T02:13:19;2.20;99.90
8676;DHT22;4375;52.486;13.424;2023-02-28T02:18:53;2.20;99.90
8676;DHT22;4375;52.486;13.424;2023-02-28T02:21:45;2.30;99.90
8676;DHT22;4375;52.486;13.424;2023-02-28T02:35:47;2.10;99.90
8676;DHT22;4375;52.486;13.424;2023-02-28T02:38:43;2.00;99.90
8676;DHT22;4375;52.486;13.424;2023-02-28T02:41:19;1.90;99.90
8676;DHT22;4375;52.486;13.424;2023-02-28T02:43:53;2.00;99.90
8676;DHT22;4375;52.486;13.424;2023-02-28T02:48:56;1.90;99.90
8676;DHT22;4375;52.486;13.424;2023-02-28T02:51:24;1.90;99.90
8676;DHT22;4375;52.486;13.424;2023-02-28T02:53:54;1.80;99.90
8676;DHT22;4375;52.486;13.424;2023-02-28T02:56:24;1.80;99.90
8676;DHT22;4375;52.486;13.424;2023-02-28T02:58:54;1.90;99.90
8676;DHT22;4375;52.486;13.424;2023-02-28T03:01:23;1.90;99.90
8676;DHT22;4375;52.486;13.424;2023-02-28T03:04:07;1.90;99.90
8676;DHT22;4375;52.486;13.424;2023-02-28T03:06:33;1.90;99.90
8676;DHT22;4375;52.486;13.424;2023-02-28T03:09:00;2.00;99.90
8676;DHT22;4375;52.486;13.424;2023-02-28T03:11:26;1.90;99.90
8676;DHT22;4375;52.486;13.424;2023-02-28T03:13:59;1.90;99.90
8676;DHT22;4375;52.486;13.424;2023-02-28T03:16:51;2.10;99.90
8676;DHT22;4375;52.486;13.424;2023-02-28T03:24:52;2.00;99.90
8676;DHT22;4375;52.486;13.424;2023-02-28T03:28:15;2.00;99.90
8676;DHT22;4375;52.486;13.424;2023-02-28T03:30:56;2.00;99.90
8676;DHT22;4375;52.486;13.424;2023-02-28T03:33:34;2.00;99.90
8676;DHT22;4375;52.486;13.424;2023-02-28T03:36:13;1.90;99.90
8676;DHT22;4375;52.486;13.424;2023-02-28T03:41:13;1.80;99.90
8676;DHT22;4375;52.486;13.424;2023-02-28T03:43:42;1.90;99.90
8676;DHT22;4375;52.486;13.424;2023-02-28T03:46:11;1.80;99.90
8676;DHT22;4375;52.486;13.424;2023-02-28T03:48:45;1.80;99.90
8676;DHT22;4375;52.486;13.424;2023-02-28T03:51:16;1.80;99.90
8676;DHT22;4375;52.486;13.424;2023-02-28T03:53:57;1.70;99.90
8676;DHT22;4375;52.486;13.424;2023-02-28T03:56:57;1.60;99.90
8676;DHT22;4375;52.486;13.424;2023-02-28T03:59:31;1.70;99.90
8676;DHT22;4375;52.486;13.424;2023-02-28T04:01:58;1.60;99.90
8676;DHT22;4375;52.486;13.424;2023-02-28T04:04:24;1.70;99.90
8676;DHT22;4375;52.486;13.424;2023-02-28T04:06:51;1.60;99.90
8676;DHT22;4375;52.486;13.424;2023-02-28T04:09:17;1.50;99.90
8676;DHT22;4375;52.486;13.424;2023-02-28T04:11:50;1.50;99.90
8676;DHT22;4375;52.486;13.424;2023-02-28T04:14:17;1.60;99.90
8676;DHT22;4375;52.486;13.424;2023-02-28T04:16:43;1.70;99.90
8676;DHT22;4375;52.486;13.424;2023-02-28T04:19:10;1.60;99.90
8676;DHT22;4375;52.486;13.424;2023-02-28T04:21:38;1.40;99.90
8676;DHT22;4375;52.486;13.424;2023-02-28T04:24:05;1.30;99.90
8676;DHT22;4375;52.486;13.424;2023-02-28T04:26:34;1.30;99.90
8676;DHT22;4375;52.486;13.424;2023-02-28T04:29:02;1.30;99.90
8676;DHT22;4375;52.486;13.424;2023-02-28T04:31:27;1.30;99.90
8676;DHT22;4375;52.486;13.424;2023-02-28T04:33:53;1.40;99.90
8676;DHT22;4375;52.486;13.424;2023-02-28T04:36:19;1.30;99.90
8676;DHT22;4375;52.486;13.424;2023-02-28T04:38:45;1.20;99.90
8676;DHT22;4375;52.486;13.424;2023-02-28T04:41:12;1.30;99.90
8676;DHT22;4375;52.486;13.424;2023-02-28T04:43:38;1.30;99.90
8676;DHT22;4375;52.486;13.424;2023-02-28T04:46:05;1.30;99.90
8676;DHT22;4375;52.486;13.424;2023-02-28T04:48:34;1.30;99.90
8676;DHT22;4375;52.486;13.424;2023-02-28T04:51:03;1.30;99.90
8676;DHT22;4375;52.486;13.424;2023-02-28T04:53:32;1.30;99.90
8676;DHT22;4375;52.486;13.424;2023-02-28T04:55:58;1.30;99.90
8676;DHT22;4375;52.486;13.424;2023-02-28T04:58:25;1.30;99.90
8676;DHT22;4375;52.486;13.424;2023-02-28T05:00:52;1.20;99.90
8676;DHT22;4375;52.486;13.424;2023-02-28T05:03:17;1.20;99.90
8676;DHT22;4375;52.486;13.424;2023-02-28T05:05:43;1.10;99.90
8676;DHT22;4375;52.486;13.424;2023-02-28T05:08:09;1.10;99.90
8676;DHT22;4375;52.486;13.424;2023-02-28T05:10:35;1.20;99.90
8676;DHT22;4375;52.486;13.424;2023-02-28T05:13:01;1.20;99.90
8676;DHT22;4375;52.486;13.424;2023-02-28T05:15:27;1.10;99.90
8676;DHT22;4375;52.486;13.424;2023-02-28T05:17:53;1.10;99.90
8676;DHT22;4375;52.486;13.424;2023-02-28T05:20:19;1.10;99.90
8676;DHT22;4375;52.486;13.424;2023-02-28T05:22:46;1.10;99.90
8676;DHT22;4375;52.486;13.424;2023-02-28T05:25:15;1.10;99.90
8676;DHT22;4375;52.486;13.424;2023-02-28T05:27:41;1.10;99.90
8676;DHT22;4375;52.486;13.424;2023-02-28T05:30:08;1.10;99.90
8676;DHT22;4375;52.486;13.424;2023-02-28T05:32:38;1.10;99.90
8676;DHT22;4375;52.486;13.424;2023-02-28T05:35:04;1.30;99.90
8676;DHT22;4375;52.486;13.424;2023-02-28T05:37:30;1.30;99.90
8676;DHT22;4375;52.486;13.424;2023-02-28T05:39:55;1.20;99.90
8676;DHT22;4375;52.486;13.424;2023-02-28T05:42:21;1.20;99.90
8676;DHT22;4375;52.486;13.424;2023-02-28T05:44:47;1.10;99.90
8676;DHT22;4375;52.486;13.424;2023-02-28T05:47:12;1.10;99.90
8676;DHT22;4375;52.486;13.424;2023-02-28T05:49:41;1.10;99.90
8676;DHT22;4375;52.486;13.424;2023-02-28T05:52:07;1.10;99.90
8676;DHT22;4375;52.486;13.424;2023-02-28T05:54:33;1.00;99.90
8676;DHT22;4375;52.486;13.424;2023-02-28T05:56:58;1.00;99.90
8676;DHT22;4375;52.486;13.424;2023-02-28T05:59:24;1.00;99.90
8676;DHT22;4375;52.486;13.424;2023-02-28T06:01:50;0.90;99.90
8676;DHT22;4375;52.486;13.424;2023-02-28T06:04:18;1.00;99.90
8676;DHT22;4375;52.486;13.424;2023-02-28T06:06:48;1.00;99.90
8676;DHT22;4375;52.486;13.424;2023-02-28T06:09:14;0.90;99.90
8676;DHT22;4375;52.486;13.424;2023-02-28T06:11:40;0.90;99.90
8676;DHT22;4375;52.486;13.424;2023-02-28T06:14:07;0.90;99.90
8676;DHT22;4375;52.486;13.424;2023-02-28T06:16:34;1.00;99.90
8676;DHT22;4375;52.486;13.424;2023-02-28T06:19:03;1.10;99.90
8676;DHT22;4375;52.486;13.424;2023-02-28T06:21:29;1.10;99.90
8676;DHT22;4375;52.486;13.424;2023-02-28T06:23:56;1.10;99.90
8676;DHT22;4375;52.486;13.424;2023-02-28T06:26:22;1.00;99.90
8676;DHT22;4375;52.486;13.424;2023-02-28T06:28:47;1.10;99.90
8676;DHT22;4375;52.486;13.424;2023-02-28T06:31:15;1.10;99.90
8676;DHT22;4375;52.486;13.424;2023-02-28T06:33:42;1.10;99.90
8676;DHT22;4375;52.486;13.424;2023-02-28T06:36:09;1.10;99.90
8676;DHT22;4375;52.486;13.424;2023-02-28T06:38:36;1.20;99.90
8676;DHT22;4375;52.486;13.424;2023-02-28T06:41:02;1.20;99.90
8676;DHT22;4375;52.486;13.424;2023-02-28T06:43:29;1.10;99.90
8676;DHT22;4375;52.486;13.424;2023-02-28T06:45:57;1.10;99.90
8676;DHT22;4375;52.486;13.424;2023-02-28T06:48:23;1.20;99.90
8676;DHT22;4375;52.486;13.424;2023-02-28T06:50:49;1.10;99.90
8676;DHT22;4375;52.486;13.424;2023-02-28T06:53:15;1.10;99.90
8676;DHT22;4375;52.486;13.424;2023-02-28T06:55:41;1.20;99.90
8676;DHT22;4375;52.486;13.424;2023-02-28T06:58:07;1.20;99.90
8676;DHT22;4375;52.486;13.424;2023-02-28T07:00:44;1.30;99.90
8676;DHT22;4375;52.486;13.424;2023-02-28T07:03:11;1.30;99.90
8676;DHT22;4375;52.486;13.424;2023-02-28T07:05:38;1.30;99.90
8676;DHT22;4375;52.486;13.424;2023-02-28T07:08:05;1.40;99.90
8676;DHT22;4375;52.486;13.424;2023-02-28T07:10:36;1.30;99.90
8676;DHT22;4375;52.486;13.424;2023-02-28T07:13:04;1.40;99.90
8676;DHT22;4375;52.486;13.424;2023-02-28T07:15:30;1.50;99.90
8676;DHT22;4375;52.486;13.424;2023-02-28T07:17:55;1.60;99.90
8676;DHT22;4375;52.486;13.424;2023-02-28T07:20:22;1.60;99.90
8676;DHT22;4375;52.486;13.424;2023-02-28T07:22:49;1.70;99.90
8676;DHT22;4375;52.486;13.424;2023-02-28T07:25:25;1.70;99.90
8676;DHT22;4375;52.486;13.424;2023-02-28T07:27:51;1.90;99.90
8676;DHT22;4375;52.486;13.424;2023-02-28T07:30:18;2.00;99.90
8676;DHT22;4375;52.486;13.424;2023-02-28T07:32:43;2.00;99.90
8676;DHT22;4375;52.486;13.424;2023-02-28T07:35:09;2.00;99.90
8676;DHT22;4375;52.486;13.424;2023-02-28T07:37:35;2.00;99.90
8676;DHT22;4375;52.486;13.424;2023-02-28T07:40:04;2.10;99.90
8676;DHT22;4375;52.486;13.424;2023-02-28T07:42:31;2.20;99.90
8676;DHT22;4375;52.486;13.424;2023-02-28T07:44:57;2.20;99.90
8676;DHT22;4375;52.486;13.424;2023-02-28T07:47:24;2.20;99.90
8676;DHT22;4375;52.486;13.424;2023-02-28T07:49:50;2.20;99.90
8676;DHT22;4375;52.486;13.424;2023-02-28T07:52:16;2.30;99.90
8676;DHT22;4375;52.486;13.424;2023-02-28T07:54:41;2.30;99.90
8676;DHT22;4375;52.486;13.424;2023-02-28T07:57:07;2.40;99.90
8676;DHT22;4375;52.486;13.424;2023-02-28T07:59:32;2.40;99.90
8676;DHT22;4375;52.486;13.424;2023-02-28T08:01:58;2.60;99.90
8676;DHT22;4375;52.486;13.424;2023-02-28T08:04:24;2.60;99.90
8676;DHT22;4375;52.486;13.424;2023-02-28T08:06:50;2.60;99.90
8676;DHT22;4375;52.486;13.424;2023-02-28T08:09:19;2.60;99.90
8676;DHT22;4375;52.486;13.424;2023-02-28T08:11:45;2.70;99.90
8676;DHT22;4375;52.486;13.424;2023-02-28T08:14:10;2.80;99.90
8676;DHT22;4375;52.486;13.424;2023-02-28T08:16:36;2.90;99.90
8676;DHT22;4375;52.486;13.424;2023-02-28T08:19:02;2.90;99.90
8676;DHT22;4375;52.486;13.424;2023-02-28T08:21:28;2.90;99.90
8676;DHT22;4375;52.486;13.424;2023-02-28T08:23:53;3.00;99.90
8676;DHT22;4375;52.486;13.424;2023-02-28T08:26:19;3.10;99.90
8676;DHT22;4375;52.486;13.424;2023-02-28T08:28:46;3.10;99.90
8676;DHT22;4375;52.486;13.424;2023-02-28T08:31:13;3.10;99.90
8676;DHT22;4375;52.486;13.424;2023-02-28T08:33:40;3.20;99.90
8676;DHT22;4375;52.486;13.424;2023-02-28T08:36:08;3.20;99.90
8676;DHT22;4375;52.486;13.424;2023-02-28T08:38:34;3.40;99.90
8676;DHT22;4375;52.486;13.424;2023-02-28T08:41:03;3.40;99.90
8676;DHT22;4375;52.486;13.424;2023-02-28T08:43:29;3.50;99.90
8676;DHT22;4375;52.486;13.424;2023-02-28T08:45:55;3.60;99.90
8676;DHT22;4375;52.486;13.424;2023-02-28T08:48:25;3.70;99.90
8676;DHT22;4375;52.486;13.424;2023-02-28T08:50:58;3.70;99.90
8676;DHT22;4375;52.486;13.424;2023-02-28T08:53:24;3.70;99.90
8676;DHT22;4375;52.486;13.424;2023-02-28T08:56:05;3.80;99.90
8676;DHT22;4375;52.486;13.424;2023-02-28T08:58:32;4.70;99.90
8676;DHT22;4375;52.486;13.424;2023-02-28T09:00:57;6.00;99.90
8676;DHT22;4375;52.486;13.424;2023-02-28T09:03:35;7.30;99.90
8676;DHT22;4375;52.486;13.424;2023-02-28T09:06:04;8.20;99.00
8676;DHT22;4375;52.486;13.424;2023-02-28T09:08:30;8.00;96.80
8676;DHT22;4375;52.486;13.424;2023-02-28T09:10:57;7.60;95.40
8676;DHT22;4375;52.486;13.424;2023-02-28T09:13:24;6.80;95.50
8676;DHT22;4375;52.486;13.424;2023-02-28T09:15:49;6.10;96.60
8676;DHT22;4375;52.486;13.424;2023-02-28T09:18:16;5.80;97.40
8676;DHT22;4375;52.486;13.424;2023-02-28T09:20:42;5.60;97.80
8676;DHT22;4375;52.486;13.424;2023-02-28T09:23:10;5.70;98.30
8676;DHT22;4375;52.486;13.424;2023-02-28T09:25:36;5.60;98.70
8676;DHT22;4375;52.486;13.424;2023-02-28T09:28:02;5.60;99.60
8676;DHT22;4375;52.486;13.424;2023-02-28T09:30:28;5.60;98.90
8676;DHT22;4375;52.486;13.424;2023-02-28T09:32:55;5.50;97.80
8676;DHT22;4375;52.486;13.424;2023-02-28T09:35:21;5.30;98.00
8676;DHT22;4375;52.486;13.424;2023-02-28T09:37:48;5.30;98.50
8676;DHT22;4375;52.486;13.424;2023-02-28T09:40:25;5.30;98.60
8676;DHT22;4375;52.486;13.424;2023-02-28T09:42:53;5.20;97.70
8676;DHT22;4375;52.486;13.424;2023-02-28T09:45:39;5.30;98.10
8676;DHT22;4375;52.486;13.424;2023-02-28T09:48:18;5.20;97.80
8676;DHT22;4375;52.486;13.424;2023-02-28T09:53:39;5.10;97.90
8676;DHT22;4375;52.486;13.424;2023-02-28T09:56:10;5.10;97.80
8676;DHT22;4375;52.486;13.424;2023-02-28T10:01:10;5.20;97.90
8676;DHT22;4375;52.486;13.424;2023-02-28T10:03:49;5.20;97.90
8676;DHT22;4375;52.486;13.424;2023-02-28T10:06:28;5.20;97.90
8676;DHT22;4375;52.486;13.424;2023-02-28T10:09:07;5.20;97.90
8676;DHT22;4375;52.486;13.424;2023-02-28T10:11:36;5.00;98.20
8676;DHT22;4375;52.486;13.424;2023-02-28T10:14:10;4.90;98.50
8676;DHT22;4375;52.486;13.424;2023-02-28T10:19:16;4.80;98.70
8676;DHT22;4375;52.486;13.424;2023-02-28T10:21:59;4.90;98.50
8676;DHT22;4375;52.486;13.424;2023-02-28T10:24:30;4.90;98.30
8676;DHT22;4375;52.486;13.424;2023-02-28T10:27:12;4.90;98.50
8676;DHT22;4375;52.486;13.424;2023-02-28T10:29:42;5.10;98.20
8676;DHT22;4375;52.486;13.424;2023-02-28T10:32:14;4.90;98.50
8676;DHT22;4375;52.486;13.424;2023-02-28T10:37:40;4.90;98.80
8676;DHT22;4375;52.486;13.424;2023-02-28T10:40:28;4.90;98.90
8676;DHT22;4375;52.486;13.424;2023-02-28T10:45:38;4.40;98.60
8676;DHT22;4375;52.486;13.424;2023-02-28T10:48:27;4.70;99.00
8676;DHT22;4375;52.486;13.424;2023-02-28T10:50:54;4.70;98.50
8676;DHT22;4375;52.486;13.424;2023-02-28T10:53:30;4.70;98.30
8676;DHT22;4375;52.486;13.424;2023-02-28T10:56:03;4.80;98.50
8676;DHT22;4375;52.486;13.424;2023-02-28T10:58:49;4.90;98.50
8676;DHT22;4375;52.486;13.424;2023-02-28T11:03:57;5.10;98.20
8676;DHT22;4375;52.486;13.424;2023-02-28T11:06:30;4.90;98.20
8676;DHT22;4375;52.486;13.424;2023-02-28T11:11:27;5.00;98.70
8676;DHT22;4375;52.486;13.424;2023-02-28T11:16:51;5.00;98.50
8676;DHT22;4375;52.486;13.424;2023-02-28T11:19:29;5.00;98.50
8676;DHT22;4375;52.486;13.424;2023-02-28T11:22:01;5.00;98.50
8676;DHT22;4375;52.486;13.424;2023-02-28T11:27:02;5.20;98.30
8676;DHT22;4375;52.486;13.424;2023-02-28T11:29:31;5.20;98.40
8676;DHT22;4375;52.486;13.424;2023-02-28T11:32:24;5.20;98.40
8676;DHT22;4375;52.486;13.424;2023-02-28T11:35:16;5.10;98.20
8676;DHT22;4375;52.486;13.424;2023-02-28T11:37:45;5.20;98.20
8676;DHT22;4375;52.486;13.424;2023-02-28T11:40:17;5.10;98.10
8676;DHT22;4375;52.486;13.424;2023-02-28T11:46:00;5.30;98.50
8676;DHT22;4375;52.486;13.424;2023-02-28T11:48:42;5.20;98.50
8676;DHT22;4375;52.486;13.424;2023-02-28T11:56:30;5.20;98.60
8676;DHT22;4375;52.486;13.424;2023-02-28T12:02:24;5.50;98.80
8676;DHT22;4375;52.486;13.424;2023-02-28T12:08:43;5.60;98.60
8676;DHT22;4375;52.486;13.424;2023-02-28T12:16:13;5.50;99.10
8676;DHT22;4375;52.486;13.424;2023-02-28T12:21:31;5.40;98.60
8676;DHT22;4375;52.486;13.424;2023-02-28T12:24:35;5.40;99.00
8676;DHT22;4375;52.486;13.424;2023-02-28T12:26:53;5.50;99.10
8676;DHT22;4375;52.486;13.424;2023-02-28T12:29:28;5.60;98.70
8676;DHT22;4375;52.486;13.424;2023-02-28T12:33:07;5.50;98.70
8676;DHT22;4375;52.486;13.424;2023-02-28T12:35:24;5.40;98.70
8676;DHT22;4375;52.486;13.424;2023-02-28T12:41:01;5.20;98.90
8676;DHT22;4375;52.486;13.424;2023-02-28T12:43:38;5.40;99.10
8676;DHT22;4375;52.486;13.424;2023-02-28T12:46:51;5.40;98.50
8676;DHT22;4375;52.486;13.424;2023-02-28T12:49:23;5.40;98.80
8676;DHT22;4375;52.486;13.424;2023-02-28T12:51:51;5.40;98.50
8676;DHT22;4375;52.486;13.424;2023-02-28T12:54:46;5.30;98.20
8676;DHT22;4375;52.486;13.424;2023-02-28T12:57:22;5.50;98.40
8676;DHT22;4375;52.486;13.424;2023-02-28T12:59:57;5.60;98.10
8676;DHT22;4375;52.486;13.424;2023-02-28T13:07:51;6.10;97.90
8676;DHT22;4375;52.486;13.424;2023-02-28T13:10:22;6.10;97.30
8676;DHT22;4375;52.486;13.424;2023-02-28T13:12:52;6.20;97.10
8676;DHT22;4375;52.486;13.424;2023-02-28T13:15:26;6.30;96.30
8676;DHT22;4375;52.486;13.424;2023-02-28T13:17:56;6.20;95.90
8676;DHT22;4375;52.486;13.424;2023-02-28T13:20:34;6.20;96.20
8676;DHT22;4375;52.486;13.424;2023-02-28T13:23:01;6.10;96.00
8676;DHT22;4375;52.486;13.424;2023-02-28T13:28:13;6.10;96.30
8676;DHT22;4375;52.486;13.424;2023-02-28T13:31:03;6.00;95.70
8676;DHT22;4375;52.486;13.424;2023-02-28T13:34:04;5.90;95.60
8676;DHT22;4375;52.486;13.424;2023-02-28T13:36:31;5.80;95.80
8676;DHT22;4375;52.486;13.424;2023-02-28T13:41:47;5.90;96.10
8676;DHT22;4375;52.486;13.424;2023-02-28T13:44:23;6.00;95.20
8676;DHT22;4375;52.486;13.424;2023-02-28T13:54:55;5.90;96.10
8676;DHT22;4375;52.486;13.424;2023-02-28T14:05:17;5.80;96.40
8676;DHT22;4375;52.486;13.424;2023-02-28T14:07:49;5.90;96.60
8676;DHT22;4375;52.486;13.424;2023-02-28T14:18:00;6.10;97.10
8676;DHT22;4375;52.486;13.424;2023-02-28T14:20:30;6.10;96.80
8676;DHT22;4375;52.486;13.424;2023-02-28T14:26:02;5.80;96.80
8676;DHT22;4375;52.486;13.424;2023-02-28T14:28:50;5.60;96.90
8676;DHT22;4375;52.486;13.424;2023-02-28T14:31:44;5.70;97.00
8676;DHT22;4375;52.486;13.424;2023-02-28T14:34:34;5.60;97.10
8676;DHT22;4375;52.486;13.424;2023-02-28T14:37:01;5.70;97.40
8676;DHT22;4375;52.486;13.424;2023-02-28T14:39:28;5.70;97.60
8676;DHT22;4375;52.486;13.424;2023-02-28T14:41:56;5.70;97.50
8676;DHT22;4375;52.486;13.424;2023-02-28T14:44:27;5.70;97.80
8676;DHT22;4375;52.486;13.424;2023-02-28T14:46:55;5.70;97.90
8676;DHT22;4375;52.486;13.424;2023-02-28T14:49:28;5.70;97.70
8676;DHT22;4375;52.486;13.424;2023-02-28T14:54:38;5.70;97.60
8676;DHT22;4375;52.486;13.424;2023-02-28T14:57:04;5.70;97.10
8676;DHT22;4375;52.486;13.424;2023-02-28T14:59:35;5.60;96.90
8676;DHT22;4375;52.486;13.424;2023-02-28T15:02:23;5.60;96.90
8676;DHT22;4375;52.486;13.424;2023-02-28T15:04:56;5.60;96.90
8676;DHT22;4375;52.486;13.424;2023-02-28T15:07:22;5.60;97.10
8676;DHT22;4375;52.486;13.424;2023-02-28T15:12:39;5.60;97.00
8676;DHT22;4375;52.486;13.424;2023-02-28T15:15:06;5.60;97.00
8676;DHT22;4375;52.486;13.424;2023-02-28T15:17:39;5.70;97.20
8676;DHT22;4375;52.486;13.424;2023-02-28T15:20:05;5.70;97.20
8676;DHT22;4375;52.486;13.424;2023-02-28T15:22:35;5.80;96.80
8676;DHT22;4375;52.486;13.424;2023-02-28T15:25:03;5.80;96.90
8676;DHT22;4375;52.486;13.424;2023-02-28T15:27:32;5.70;96.20
8676;DHT22;4375;52.486;13.424;2023-02-28T15:30:08;5.60;96.70
8676;DHT22;4375;52.486;13.424;2023-02-28T15:32:36;5.60;96.80
8676;DHT22;4375;52.486;13.424;2023-02-28T15:35:38;5.60;96.80
8676;DHT22;4375;52.486;13.424;2023-02-28T15:38:25;5.60;97.10
8676;DHT22;4375;52.486;13.424;2023-02-28T15:43:31;5.70;97.20
8676;DHT22;4375;52.486;13.424;2023-02-28T15:46:04;5.70;97.10
8676;DHT22;4375;52.486;13.424;2023-02-28T15:51:09;5.60;96.80
8676;DHT22;4375;52.486;13.424;2023-02-28T15:53:48;5.60;97.00
8676;DHT22;4375;52.486;13.424;2023-02-28T15:56:29;5.50;97.30
8676;DHT22;4375;52.486;13.424;2023-02-28T15:58:57;5.60;97.50
8676;DHT22;4375;52.486;13.424;2023-02-28T16:01:29;5.50;97.80
8676;DHT22;4375;52.486;13.424;2023-02-28T16:04:12;5.50;97.70
8676;DHT22;4375;52.486;13.424;2023-02-28T16:06:44;5.60;98.00
8676;DHT22;4375;52.486;13.424;2023-02-28T16:09:12;5.50;98.30
8676;DHT22;4375;52.486;13.424;2023-02-28T16:11:45;5.50;98.00
8676;DHT22;4375;52.486;13.424;2023-02-28T16:14:25;5.50;98.40
8676;DHT22;4375;52.486;13.424;2023-02-28T16:16:55;5.50;98.60
8676;DHT22;4375;52.486;13.424;2023-02-28T16:19:22;5.50;98.40
8676;DHT22;4375;52.486;13.424;2023-02-28T16:21:48;5.50;98.10
8676;DHT22;4375;52.486;13.424;2023-02-28T16:24:14;5.40;98.30
8676;DHT22;4375;52.486;13.424;2023-02-28T16:26:40;5.40;98.40
8676;DHT22;4375;52.486;13.424;2023-02-28T16:29:09;5.40;98.40
8676;DHT22;4375;52.486;13.424;2023-02-28T16:31:38;5.40;98.40
8676;DHT22;4375;52.486;13.424;2023-02-28T16:34:04;5.30;98.60
8676;DHT22;4375;52.486;13.424;2023-02-28T16:36:30;5.30;98.80
8676;DHT22;4375;52.486;13.424;2023-02-28T16:38:56;5.30;99.00
8676;DHT22;4375;52.486;13.424;2023-02-28T16:41:24;5.30;99.10
8676;DHT22;4375;52.486;13.424;2023-02-28T16:43:52;5.30;99.20
8676;DHT22;4375;52.486;13.424;2023-02-28T16:46:19;5.20;99.10
8676;DHT22;4375;52.486;13.424;2023-02-28T16:48:46;5.20;99.30
8676;DHT22;4375;52.486;13.424;2023-02-28T16:51:15;5.20;99.50
8676;DHT22;4375;52.486;13.424;2023-02-28T16:53:42;5.20;99.40
8676;DHT22;4375;52.486;13.424;2023-02-28T16:56:23;5.20;99.20
8676;DHT22;4375;52.486;13.424;2023-02-28T16:58:51;5.10;99.30
8676;DHT22;4375;52.486;13.424;2023-02-28T17:01:18;5.10;99.50
8676;DHT22;4375;52.486;13.424;2023-02-28T17:03:50;5.00;99.60
8676;DHT22;4375;52.486;13.424;2023-02-28T17:06:19;5.10;99.60
8676;DHT22;4375;52.486;13.424;2023-02-28T17:08:45;5.10;99.70
8676;DHT22;4375;52.486;13.424;2023-02-28T17:11:11;5.00;99.90
8676;DHT22;4375;52.486;13.424;2023-02-28T17:13:37;5.00;99.90
8676;DHT22;4375;52.486;13.424;2023-02-28T17:16:02;5.00;99.90
8676;DHT22;4375;52.486;13.424;2023-02-28T17:18:28;5.00;99.90
8676;DHT22;4375;52.486;13.424;2023-02-28T17:20:59;5.00;99.90
8676;DHT22;4375;52.486;13.424;2023-02-28T17:23:25;4.90;99.90
8676;DHT22;4375;52.486;13.424;2023-02-28T17:25:50;4.90;99.90
8676;DHT22;4375;52.486;13.424;2023-02-28T17:28:22;4.90;99.90
8676;DHT22;4375;52.486;13.424;2023-02-28T17:30:48;4.90;99.90
8676;DHT22;4375;52.486;13.424;2023-02-28T17:33:15;4.80;99.90
8676;DHT22;4375;52.486;13.424;2023-02-28T17:35:40;4.80;99.90
8676;DHT22;4375;52.486;13.424;2023-02-28T17:38:17;4.90;99.90
8676;DHT22;4375;52.486;13.424;2023-02-28T17:40:43;4.90;99.90
8676;DHT22;4375;52.486;13.424;2023-02-28T17:43:09;4.80;99.90
8676;DHT22;4375;52.486;13.424;2023-02-28T17:45:35;4.80;99.90
8676;DHT22;4375;52.486;13.424;2023-02-28T17:54:37;4.70;99.90
8676;DHT22;4375;52.486;13.424;2023-02-28T17:57:08;4.60;99.90
8676;DHT22;4375;52.486;13.424;2023-02-28T18:09:22;4.50;99.90
8676;DHT22;4375;52.486;13.424;2023-02-28T18:12:21;4.50;99.90
8676;DHT22;4375;52.486;13.424;2023-02-28T18:14:49;4.50;99.90
8676;DHT22;4375;52.486;13.424;2023-02-28T18:17:15;4.40;99.90
8676;DHT22;4375;52.486;13.424;2023-02-28T18:19:41;4.40;99.90
8676;DHT22;4375;52.486;13.424;2023-02-28T18:22:06;4.30;99.90
8676;DHT22;4375;52.486;13.424;2023-02-28T18:24:33;4.30;99.90
8676;DHT22;4375;52.486;13.424;2023-02-28T18:26:59;4.40;99.90
8676;DHT22;4375;52.486;13.424;2023-02-28T18:29:26;4.30;99.90
8676;DHT22;4375;52.486;13.424;2023-02-28T18:31:53;4.40;99.90
8676;DHT22;4375;52.486;13.424;2023-02-28T18:34:20;4.40;99.90
8676;DHT22;4375;52.486;13.424;2023-02-28T18:36:46;4.40;99.90
8676;DHT22;4375;52.486;13.424;2023-02-28T18:39:14;4.30;99.90
8676;DHT22;4375;52.486;13.424;2023-02-28T18:41:40;4.30;99.90
8676;DHT22;4375;52.486;13.424;2023-02-28T18:44:06;4.30;99.90